European Highlander — C6SN6 — position and weather

sailwx.info

Track history (hours):
 
Tides and Currents Weather Stations Pressure Air Temp Water Temp Dewpoint Dewpoint Depression Visibility Wind Speed Wind Dir Waves Ship Positions

European Highlander

Operator: P&O Irish Sea Ltd

Last reported at 2019-May-17 09:44 UTC. Time now 2019-May-20 17:28 UTC.
Position N 53°23' W 003°01'.

Length 161 m; draft 4.8 m.

Type: Passenger vessel. MMSI: 311404000.

Date/timePositionNaut miles runAvg speedWind from/ knotsBaromVisibWave heightAir tempDewpointWater temp
2019-May-17 09:44N 53°23' W 003°01'0 0.0
2019-May-17 09:29N 53°23' W 003°01'0 0.0
2019-May-17 08:59N 53°23' W 003°01'0 0.0
2019-May-17 08:29N 53°23' W 003°01'0 0.0
2019-May-17 08:00N 53°23' W 003°01'0 0.7
2019-May-17 07:30N 53°24' W 003°00'510.5
2019-May-17 07:00N 53°28' W 003°04'715.0
2019-May-17 06:31N 53°31' W 003°16'510.2
2019-May-17 06:00N 53°31' W 003°24'3 6.8
2019-May-17 05:30N 53°31' W 003°30'612.3
2019-May-17 05:00N 53°31' W 003°40'815.3
2019-May-17 04:31N 53°31' W 003°53'714.6
2019-May-17 04:00N 53°36' W 004°03'811.4
2019-May-17 03:19N 53°41' W 004°13'1211.8
2019-May-17 02:16N 53°48' W 004°30'5 9.1
2019-May-17 01:45N 53°51' W 004°37'3 8.8
2019-May-17 01:27N 53°52' W 004°40'20 8.3
2019-May-16 23:05N 54°08' W 005°01'1 9.2
2019-May-16 23:00N 54°09' W 005°01'5 9.2
2019-May-16 22:30N 54°13' W 005°02'5 9.7
2019-May-16 22:00N 54°18' W 005°03'510.0
2019-May-16 21:31N 54°23' W 005°05'510.3
2019-May-16 21:01N 54°27' W 005°09'510.8
2019-May-16 20:31N 54°32' W 005°13'611.4
2019-May-16 20:00N 54°37' W 005°19'612.7
2019-May-16 19:30N 54°42' W 005°25'612.6
2019-May-16 19:00N 54°48' W 005°30'612.6
2019-May-16 18:30N 54°51' W 005°40'5 7.4
2019-May-16 17:54N 54°51' W 005°48'0 0.0
2019-May-16 17:15N 54°51' W 005°48'0 0.0
2019-May-16 17:00N 54°51' W 005°48'0 0.0
2019-May-16 16:30N 54°51' W 005°48'0 0.0
2019-May-16 16:00N 54°51' W 005°48'0 0.0
2019-May-16 14:54N 54°51' W 005°48'0 0.0
2019-May-16 14:18N 54°51' W 005°48'0 0.0
2019-May-16 13:24N 54°51' W 005°48'0 0.0
2019-May-16 12:24N 54°51' W 005°48'0 0.0
2019-May-16 11:42N 54°51' W 005°48'0 0.0
2019-May-16 10:54N 54°51' W 005°48'0 0.0
2019-May-16 09:54N 54°51' W 005°48'0 0.0
2019-May-16 09:18N 54°51' W 005°48'0 0.0
2019-May-16 08:00N 54°51' W 005°48'0 0.1
2019-May-16 06:54N 54°51' W 005°48'0 0.0
2019-May-16 06:06N 54°51' W 005°48'0 0.0
2019-May-16 05:57N 54°51' W 005°48'0 0.0
2019-May-16 05:30N 54°51' W 005°48'0 0.0
2019-May-16 05:00N 54°51' W 005°48'1515.7
2019-May-16 04:03N 54°58' W 005°25'119.6
2019-May-16 04:00N 54°58' W 005°24'7 1.9
2019-May-16 00:22N 55°01' W 005°13'818.5
2019-May-15 23:55N 54°56' W 005°25'717.4
2019-May-15 23:30N 54°54' W 005°37'712.4
2019-May-15 22:56N 54°51' W 005°48'0 0.0
2019-May-15 22:23N 54°51' W 005°48'0 0.0
2019-May-15 21:59N 54°51' W 005°48'0 0.0
2019-May-15 21:29N 54°51' W 005°48'0 0.0
2019-May-15 21:00N 54°51' W 005°48'612.4
2019-May-15 20:31N 54°54' W 005°39'917.4
2019-May-15 20:01N 54°58' W 005°25'1217.4
2019-May-15 19:21N 55°02' W 005°06'6 2.2
2019-May-15 16:43N 54°60' W 005°15'520.0
2019-May-15 16:27N 54°57' W 005°24'920.8
2019-May-15 16:00N 54°54' W 005°38'611.9
2019-May-15 15:29N 54°51' W 005°48'0 0.0
2019-May-15 14:54N 54°51' W 005°48'0 0.1
2019-May-15 14:28N 54°51' W 005°48'714.3
2019-May-15 14:00N 54°54' W 005°38'917.9
2019-May-15 13:30N 54°58' W 005°24'8 3.0
2019-May-15 10:46N 55°01' W 005°10'621.2
2019-May-15 10:30N 54°58' W 005°19'1020.1
2019-May-15 10:00N 54°54' W 005°35'816.3
2019-May-15 09:30N 54°51' W 005°48'0 0.2
2019-May-15 08:59N 54°51' W 005°48'0 0.0
2019-May-15 08:30N 54°51' W 005°48'711.1
2019-May-15 07:53N 54°54' W 005°38'817.9
2019-May-15 07:26N 54°58' W 005°25'9 2.8
2019-May-15 04:17N 55°01' W 005°11'517.2
2019-May-15 03:58N 54°58' W 005°19'918.4
2019-May-15 03:30N 54°55' W 005°33'1017.0
2019-May-15 02:56N 54°51' W 005°48'0 0.3
2019-May-15 02:28N 54°51' W 005°48'0 0.0
2019-May-15 01:49N 54°51' W 005°48'0 0.0
2019-May-15 01:19N 54°51' W 005°48'0 0.0
2019-May-15 00:53N 54°51' W 005°48'2 6.4
2019-May-15 00:30N 54°53' W 005°45'917.7
2019-May-15 00:00N 54°57' W 005°32'917.5
2019-May-14 23:28N 55°00' W 005°17'2 0.8
2019-May-14 20:23N 55°01' W 005°13'717.6
2019-May-14 20:00N 54°58' W 005°23'917.6
2019-May-14 19:30N 54°54' W 005°37'714.2
2019-May-14 19:00N 54°51' W 005°48'0 0.1
2019-May-14 18:26N 54°51' W 005°48'0 0.0
2019-May-14 17:56N 54°51' W 005°48'0 0.0
2019-May-14 17:30N 54°51' W 005°48'611.2
2019-May-14 16:56N 54°54' W 005°38'919.8
2019-May-14 16:30N 54°58' W 005°25'8 2.9
2019-May-14 13:44N 55°01' W 005°12'520.4
2019-May-14 13:30N 54°58' W 005°19'1020.5
2019-May-14 13:00N 54°54' W 005°35'815.0
2019-May-14 12:29N 54°51' W 005°48'0 0.1
2019-May-14 12:00N 54°51' W 005°48'0 0.0
2019-May-14 11:30N 54°51' W 005°48'510.5
2019-May-14 10:59N 54°54' W 005°40'918.0
2019-May-14 10:30N 54°58' W 005°27'10 3.6
2019-May-14 07:48N 55°01' W 005°11'517.4
2019-May-14 07:30N 54°59' W 005°19'917.6
2019-May-14 06:58N 54°55' W 005°33'917.4
2019-May-14 06:29N 54°52' W 005°47'1 1.4
2019-May-14 05:49N 54°51' W 005°48'0 0.0
2019-May-14 05:19N 54°51' W 005°48'0 0.0
2019-May-14 05:00N 54°51' W 005°48'815.4
2019-May-14 04:29N 54°55' W 005°36'1021.2
2019-May-14 04:00N 54°59' W 005°20'4 1.0
2019-May-14 00:19N 54°60' W 005°14'721.6
2019-May-14 00:00N 54°56' W 005°24'1121.5
2019-May-13 23:30N 54°53' W 005°42'4 8.1
2019-May-13 23:00N 54°51' W 005°48'0 0.0
2019-May-13 22:29N 54°51' W 005°48'0 0.0
2019-May-13 21:59N 54°51' W 005°48'0 0.0
2019-May-13 21:29N 54°51' W 005°48'0 0.0
2019-May-13 20:48N 54°51' W 005°48'410.0
2019-May-13 20:26N 54°53' W 005°43'817.8
2019-May-13 20:01N 54°56' W 005°31'13 4.0
2019-May-13 16:52N 55°01' W 005°11'821.4
2019-May-13 16:29N 54°57' W 005°23'1022.1
2019-May-13 16:00N 54°53' W 005°40'510.0
2019-May-13 15:30N 54°51' W 005°48'0 0.0
2019-May-13 14:59N 54°51' W 005°48'0 0.0
2019-May-13 14:30N 54°51' W 005°48'5 9.1
2019-May-13 14:00N 54°53' W 005°41'917.4
2019-May-13 13:30N 54°58' W 005°28'10 3.6
2019-May-13 10:49N 55°01' W 005°12'720.6
2019-May-13 10:30N 54°58' W 005°22'917.7
2019-May-13 10:00N 54°54' W 005°36'714.7
2019-May-13 09:30N 54°51' W 005°48'0 0.2
2019-May-13 08:53N 54°51' W 005°48'0 0.0
2019-May-13 08:24N 54°51' W 005°48'3 6.6
2019-May-13 08:00N 54°53' W 005°45'917.8
2019-May-13 07:30N 54°57' W 005°31'917.4
2019-May-13 07:00N 55°00' W 005°17'3 1.2
2019-May-13 04:21N 55°01' W 005°11'616.7
2019-May-13 04:00N 54°58' W 005°19'917.6
2019-May-13 03:29N 54°54' W 005°34'916.8
2019-May-13 02:59N 54°51' W 005°48'0 0.6
2019-May-13 02:26N 54°51' W 005°48'0 0.0
2019-May-13 01:53N 54°51' W 005°48'0 0.0
2019-May-13 01:23N 54°51' W 005°48'0 0.0
2019-May-13 00:57N 54°51' W 005°48'3 6.9
2019-May-13 00:31N 54°53' W 005°44'816.7
2019-May-13 00:01N 54°57' W 005°31'916.7
2019-May-12 23:30N 55°00' W 005°17'3 0.9
2019-May-12 20:21N 55°01' W 005°12'618.0
2019-May-12 20:00N 54°58' W 005°22'917.3
2019-May-12 19:29N 54°54' W 005°36'715.1
2019-May-12 19:00N 54°51' W 005°48'0 0.3
2019-May-12 18:30N 54°51' W 005°48'0 0.0
2019-May-12 18:00N 54°51' W 005°48'0 0.0
2019-May-12 17:30N 54°51' W 005°48'5 9.9
2019-May-12 17:00N 54°54' W 005°41'917.3
2019-May-12 16:30N 54°58' W 005°27'10 3.8
2019-May-12 13:46N 55°01' W 005°10'519.9
2019-May-12 13:30N 54°59' W 005°18'1020.6
2019-May-12 13:00N 54°54' W 005°35'816.9
2019-May-12 12:31N 54°51' W 005°48'0 0.2
2019-May-12 12:00N 54°51' W 005°48'0 0.0
2019-May-12 11:30N 54°51' W 005°48'0 0.0
2019-May-12 10:51N 54°51' W 005°48'0 0.0
2019-May-12 10:18N 54°51' W 005°48'0 0.0
2019-May-12 09:51N 54°51' W 005°48'0 0.0
2019-May-12 09:11N 54°51' W 005°48'0 0.0
2019-May-12 08:26N 54°51' W 005°48'4 8.5
2019-May-12 08:00N 54°53' W 005°43'917.9
2019-May-12 07:30N 54°57' W 005°29'917.3
2019-May-12 07:00N 55°00' W 005°15'1 0.1
2019-May-11 20:04N 54°60' W 005°14'118.4
2019-May-11 20:00N 54°59' W 005°16'1217.9
2019-May-11 19:21N 54°54' W 005°34'915.5
2019-May-11 18:48N 54°51' W 005°48'0 0.5
2019-May-11 18:29N 54°51' W 005°48'0 0.0
2019-May-11 17:59N 54°51' W 005°48'0 0.0
2019-May-11 17:28N 54°51' W 005°48'1513.4
2019-May-11 16:21N 54°58' W 005°25'8 2.4
2019-May-11 12:51N 54°54' W 005°38'615.8
2019-May-11 12:27N 54°51' W 005°48'0 0.3
2019-May-11 11:41N 54°51' W 005°48'0 0.0
2019-May-11 11:29N 54°51' W 005°48'2116.4
2019-May-11 10:12N 55°00' W 005°15'1 0.2
2019-May-11 07:45N 54°60' W 005°14'517.9
2019-May-11 07:29N 54°58' W 005°22'1017.2
2019-May-11 06:56N 54°54' W 005°37'715.2
2019-May-11 06:29N 54°51' W 005°48'0 0.2
2019-May-11 05:50N 54°51' W 005°48'0 0.0
2019-May-11 05:02N 54°51' W 005°48'0 0.1
2019-May-11 04:59N 54°51' W 005°48'610.9
2019-May-11 04:29N 54°54' W 005°40'1517.1
2019-May-11 03:35N 55°00' W 005°16'1 0.3
2019-May-11 00:09N 54°60' W 005°15'817.3
2019-May-10 23:41N 54°56' W 005°28'618.0
2019-May-10 23:20N 54°54' W 005°38'615.7
2019-May-10 22:56N 54°51' W 005°48'0 0.2
2019-May-10 22:19N 54°51' W 005°48'0 0.0
2019-May-10 21:55N 54°51' W 005°48'0 0.0
2019-May-10 21:01N 54°51' W 005°48'813.1
2019-May-10 20:22N 54°55' W 005°35'617.6
2019-May-10 20:00N 54°58' W 005°25'6 2.0
2019-May-10 16:51N 55°00' W 005°15'1417.2
2019-May-10 16:01N 54°54' W 005°37'017.2
2019-May-10 16:00N 54°54' W 005°37'713.5
2019-May-10 15:30N 54°51' W 005°48'0 0.2
2019-May-10 14:56N 54°51' W 005°48'0 0.0
2019-May-10 14:26N 54°51' W 005°48'9 2.1
2019-May-10 10:08N 54°55' W 005°34'317.5
2019-May-10 09:56N 54°53' W 005°40'512.6
2019-May-10 09:30N 54°51' W 005°48'0 0.0
2019-May-10 08:35N 54°51' W 005°48'0 0.3
2019-May-10 08:27N 54°51' W 005°48'23 5.5
2019-May-10 04:19N 55°01' W 005°12'817.6
2019-May-10 03:53N 54°57' W 005°24'617.4
2019-May-10 03:30N 54°55' W 005°35'816.0
2019-May-10 02:59N 54°51' W 005°48'0 0.2
2019-May-10 01:52N 54°51' W 005°48'0 0.0
2019-May-10 01:28N 54°51' W 005°48'0 0.0
2019-May-10 00:55N 54°51' W 005°48'5 9.9
2019-May-10 00:26N 54°54' W 005°41'18 4.4
2019-May-09 20:20N 55°01' W 005°12'1617.5
2019-May-09 19:25N 54°54' W 005°38'715.4
2019-May-09 19:00N 54°51' W 005°48'0 0.1
2019-May-09 17:28N 54°51' W 005°48'15 3.7
2019-May-09 13:23N 54°57' W 005°23'820.4
2019-May-09 13:00N 54°54' W 005°36'714.5
2019-May-09 12:30N 54°51' W 005°48'0 0.0
2019-May-09 12:00N 54°51' W 005°48'0 0.0
2019-May-09 11:30N 54°51' W 005°48'2016.1
2019-May-09 10:14N 55°00' W 005°16'1 0.3
2019-May-09 07:43N 54°60' W 005°15'717.4
2019-May-09 07:18N 54°56' W 005°27'616.7
2019-May-09 06:56N 54°54' W 005°36'715.3
2019-May-09 06:28N 54°51' W 005°48'0 0.2
2019-May-09 05:39N 54°51' W 005°48'0 0.0
2019-May-09 05:15N 54°51' W 005°48'0 0.0
2019-May-09 05:00N 54°51' W 005°48'2016.5
2019-May-09 03:46N 55°00' W 005°16'1 0.2
2019-May-09 00:14N 54°60' W 005°15'718.4
2019-May-08 23:53N 54°57' W 005°26'716.5
2019-May-08 23:28N 54°54' W 005°37'715.1
2019-May-08 23:00N 54°51' W 005°48'0 0.2
2019-May-08 22:07N 54°51' W 005°48'0 0.0
2019-May-08 21:55N 54°51' W 005°48'0 0.0
2019-May-08 21:25N 54°51' W 005°48'0 0.2
2019-May-08 21:00N 54°51' W 005°48'21 5.1
2019-May-08 16:49N 55°00' W 005°15'820.2
2019-May-08 16:24N 54°56' W 005°27'1019.0
2019-May-08 15:54N 54°53' W 005°43'3 6.2
2019-May-08 15:21N 54°51' W 005°48'0 0.2
2019-May-08 14:26N 54°51' W 005°48'21 5.6
2019-May-08 10:44N 54°60' W 005°15'719.3
2019-May-08 10:22N 54°56' W 005°27'617.1
2019-May-08 10:00N 54°54' W 005°36'714.6
2019-May-08 09:31N 54°51' W 005°48'0 0.1
2019-May-08 08:33N 54°51' W 005°48'0 0.0
2019-May-08 08:30N 54°51' W 005°48'23 5.4
2019-May-08 04:17N 55°01' W 005°12'1020.5
2019-May-08 03:48N 54°56' W 005°28'917.7
2019-May-08 03:16N 54°53' W 005°43'312.8
2019-May-08 03:00N 54°51' W 005°48'0 0.2
2019-May-08 02:29N 54°51' W 005°48'0 0.0
2019-May-08 01:59N 54°51' W 005°48'0 0.0
2019-May-08 01:28N 54°51' W 005°48'0 0.0
2019-May-08 00:57N 54°51' W 005°48'21 4.3
2019-May-07 20:11N 54°60' W 005°16'2018.2
2019-May-07 19:03N 54°51' W 005°48'0 1.1
2019-May-07 19:01N 54°51' W 005°48'0 0.1
2019-May-07 18:27N 54°51' W 005°48'0 0.0
2019-May-07 17:30N 54°51' W 005°48'24 6.6
2019-May-07 13:51N 55°01' W 005°10'2019.9
2019-May-07 12:50N 54°53' W 005°43'310.9
2019-May-07 12:31N 54°51' W 005°48'0 0.0
2019-May-07 11:41N 54°51' W 005°48'0 0.1
2019-May-07 11:29N 54°51' W 005°48'  
Track history (hours):
 
Tides and Currents Weather Stations Pressure Air Temp Water Temp Dewpoint Dewpoint Depression Visibility Wind Speed Wind Dir Waves Ship Positions

European Highlander

Operator: P&O Irish Sea Ltd

Last reported at 2019-May-17 09:44 UTC. Time now 2019-May-20 17:28 UTC.
Position N 53°23' W 003°01'.

Length 161 m; draft 4.8 m.

Type: Passenger vessel. MMSI: 311404000.

Date/timePositionNaut miles runAvg speedWind from/ knotsBaromVisibWave heightAir tempDewpointWater temp
2019-May-17 09:44N 53°23' W 003°01'0 0.0
2019-May-17 09:29N 53°23' W 003°01'0 0.0
2019-May-17 08:59N 53°23' W 003°01'0 0.0
2019-May-17 08:29N 53°23' W 003°01'0 0.0
2019-May-17 08:00N 53°23' W 003°01'0 0.7
2019-May-17 07:30N 53°24' W 003°00'510.5
2019-May-17 07:00N 53°28' W 003°04'715.0
2019-May-17 06:31N 53°31' W 003°16'510.2
2019-May-17 06:00N 53°31' W 003°24'3 6.8
2019-May-17 05:30N 53°31' W 003°30'612.3
2019-May-17 05:00N 53°31' W 003°40'815.3
2019-May-17 04:31N 53°31' W 003°53'714.6
2019-May-17 04:00N 53°36' W 004°03'811.4
2019-May-17 03:19N 53°41' W 004°13'1211.8
2019-May-17 02:16N 53°48' W 004°30'5 9.1
2019-May-17 01:45N 53°51' W 004°37'3 8.8
2019-May-17 01:27N 53°52' W 004°40'20 8.3
2019-May-16 23:05N 54°08' W 005°01'1 9.2
2019-May-16 23:00N 54°09' W 005°01'5 9.2
2019-May-16 22:30N 54°13' W 005°02'5 9.7
2019-May-16 22:00N 54°18' W 005°03'510.0
2019-May-16 21:31N 54°23' W 005°05'510.3
2019-May-16 21:01N 54°27' W 005°09'510.8
2019-May-16 20:31N 54°32' W 005°13'611.4
2019-May-16 20:00N 54°37' W 005°19'612.7
2019-May-16 19:30N 54°42' W 005°25'612.6
2019-May-16 19:00N 54°48' W 005°30'612.6
2019-May-16 18:30N 54°51' W 005°40'5 7.4
2019-May-16 17:54N 54°51' W 005°48'0 0.0
2019-May-16 17:15N 54°51' W 005°48'0 0.0
2019-May-16 17:00N 54°51' W 005°48'0 0.0
2019-May-16 16:30N 54°51' W 005°48'0 0.0
2019-May-16 16:00N 54°51' W 005°48'0 0.0
2019-May-16 14:54N 54°51' W 005°48'0 0.0
2019-May-16 14:18N 54°51' W 005°48'0 0.0
2019-May-16 13:24N 54°51' W 005°48'0 0.0
2019-May-16 12:24N 54°51' W 005°48'0 0.0
2019-May-16 11:42N 54°51' W 005°48'0 0.0
2019-May-16 10:54N 54°51' W 005°48'0 0.0
2019-May-16 09:54N 54°51' W 005°48'0 0.0
2019-May-16 09:18N 54°51' W 005°48'0 0.0
2019-May-16 08:00N 54°51' W 005°48'0 0.1
2019-May-16 06:54N 54°51' W 005°48'0 0.0
2019-May-16 06:06N 54°51' W 005°48'0 0.0
2019-May-16 05:57N 54°51' W 005°48'0 0.0
2019-May-16 05:30N 54°51' W 005°48'0 0.0
2019-May-16 05:00N 54°51' W 005°48'1515.7
2019-May-16 04:03N 54°58' W 005°25'119.6
2019-May-16 04:00N 54°58' W 005°24'7 1.9
2019-May-16 00:22N 55°01' W 005°13'818.5
2019-May-15 23:55N 54°56' W 005°25'717.4
2019-May-15 23:30N 54°54' W 005°37'712.4
2019-May-15 22:56N 54°51' W 005°48'0 0.0
2019-May-15 22:23N 54°51' W 005°48'0 0.0
2019-May-15 21:59N 54°51' W 005°48'0 0.0
2019-May-15 21:29N 54°51' W 005°48'0 0.0
2019-May-15 21:00N 54°51' W 005°48'612.4
2019-May-15 20:31N 54°54' W 005°39'917.4
2019-May-15 20:01N 54°58' W 005°25'1217.4
2019-May-15 19:21N 55°02' W 005°06'6 2.2
2019-May-15 16:43N 54°60' W 005°15'520.0
2019-May-15 16:27N 54°57' W 005°24'920.8
2019-May-15 16:00N 54°54' W 005°38'611.9
2019-May-15 15:29N 54°51' W 005°48'0 0.0
2019-May-15 14:54N 54°51' W 005°48'0 0.1
2019-May-15 14:28N 54°51' W 005°48'714.3
2019-May-15 14:00N 54°54' W 005°38'917.9
2019-May-15 13:30N 54°58' W 005°24'8 3.0
2019-May-15 10:46N 55°01' W 005°10'621.2
2019-May-15 10:30N 54°58' W 005°19'1020.1
2019-May-15 10:00N 54°54' W 005°35'816.3
2019-May-15 09:30N 54°51' W 005°48'0 0.2
2019-May-15 08:59N 54°51' W 005°48'0 0.0
2019-May-15 08:30N 54°51' W 005°48'711.1
2019-May-15 07:53N 54°54' W 005°38'817.9
2019-May-15 07:26N 54°58' W 005°25'9 2.8
2019-May-15 04:17N 55°01' W 005°11'517.2
2019-May-15 03:58N 54°58' W 005°19'918.4
2019-May-15 03:30N 54°55' W 005°33'1017.0
2019-May-15 02:56N 54°51' W 005°48'0 0.3
2019-May-15 02:28N 54°51' W 005°48'0 0.0
2019-May-15 01:49N 54°51' W 005°48'0 0.0
2019-May-15 01:19N 54°51' W 005°48'0 0.0
2019-May-15 00:53N 54°51' W 005°48'2 6.4
2019-May-15 00:30N 54°53' W 005°45'917.7
2019-May-15 00:00N 54°57' W 005°32'917.5
2019-May-14 23:28N 55°00' W 005°17'2 0.8
2019-May-14 20:23N 55°01' W 005°13'717.6
2019-May-14 20:00N 54°58' W 005°23'917.6
2019-May-14 19:30N 54°54' W 005°37'714.2
2019-May-14 19:00N 54°51' W 005°48'0 0.1
2019-May-14 18:26N 54°51' W 005°48'0 0.0
2019-May-14 17:56N 54°51' W 005°48'0 0.0
2019-May-14 17:30N 54°51' W 005°48'611.2
2019-May-14 16:56N 54°54' W 005°38'919.8
2019-May-14 16:30N 54°58' W 005°25'8 2.9
2019-May-14 13:44N 55°01' W 005°12'520.4
2019-May-14 13:30N 54°58' W 005°19'1020.5
2019-May-14 13:00N 54°54' W 005°35'815.0
2019-May-14 12:29N 54°51' W 005°48'0 0.1
2019-May-14 12:00N 54°51' W 005°48'0 0.0
2019-May-14 11:30N 54°51' W 005°48'510.5
2019-May-14 10:59N 54°54' W 005°40'918.0
2019-May-14 10:30N 54°58' W 005°27'10 3.6
2019-May-14 07:48N 55°01' W 005°11'517.4
2019-May-14 07:30N 54°59' W 005°19'917.6
2019-May-14 06:58N 54°55' W 005°33'917.4
2019-May-14 06:29N 54°52' W 005°47'1 1.4
2019-May-14 05:49N 54°51' W 005°48'0 0.0
2019-May-14 05:19N 54°51' W 005°48'0 0.0
2019-May-14 05:00N 54°51' W 005°48'815.4
2019-May-14 04:29N 54°55' W 005°36'1021.2
2019-May-14 04:00N 54°59' W 005°20'4 1.0
2019-May-14 00:19N 54°60' W 005°14'721.6
2019-May-14 00:00N 54°56' W 005°24'1121.5
2019-May-13 23:30N 54°53' W 005°42'4 8.1
2019-May-13 23:00N 54°51' W 005°48'0 0.0
2019-May-13 22:29N 54°51' W 005°48'0 0.0
2019-May-13 21:59N 54°51' W 005°48'0 0.0
2019-May-13 21:29N 54°51' W 005°48'0 0.0
2019-May-13 20:48N 54°51' W 005°48'410.0
2019-May-13 20:26N 54°53' W 005°43'817.8
2019-May-13 20:01N 54°56' W 005°31'13 4.0
2019-May-13 16:52N 55°01' W 005°11'821.4
2019-May-13 16:29N 54°57' W 005°23'1022.1
2019-May-13 16:00N 54°53' W 005°40'510.0
2019-May-13 15:30N 54°51' W 005°48'0 0.0
2019-May-13 14:59N 54°51' W 005°48'0 0.0
2019-May-13 14:30N 54°51' W 005°48'5 9.1
2019-May-13 14:00N 54°53' W 005°41'917.4
2019-May-13 13:30N 54°58' W 005°28'10 3.6
2019-May-13 10:49N 55°01' W 005°12'720.6
2019-May-13 10:30N 54°58' W 005°22'917.7
2019-May-13 10:00N 54°54' W 005°36'714.7
2019-May-13 09:30N 54°51' W 005°48'0 0.2
2019-May-13 08:53N 54°51' W 005°48'0 0.0
2019-May-13 08:24N 54°51' W 005°48'3 6.6
2019-May-13 08:00N 54°53' W 005°45'917.8
2019-May-13 07:30N 54°57' W 005°31'917.4
2019-May-13 07:00N 55°00' W 005°17'3 1.2
2019-May-13 04:21N 55°01' W 005°11'616.7
2019-May-13 04:00N 54°58' W 005°19'917.6
2019-May-13 03:29N 54°54' W 005°34'916.8
2019-May-13 02:59N 54°51' W 005°48'0 0.6
2019-May-13 02:26N 54°51' W 005°48'0 0.0
2019-May-13 01:53N 54°51' W 005°48'0 0.0
2019-May-13 01:23N 54°51' W 005°48'0 0.0
2019-May-13 00:57N 54°51' W 005°48'3 6.9
2019-May-13 00:31N 54°53' W 005°44'816.7
2019-May-13 00:01N 54°57' W 005°31'916.7
2019-May-12 23:30N 55°00' W 005°17'3 0.9
2019-May-12 20:21N 55°01' W 005°12'618.0
2019-May-12 20:00N 54°58' W 005°22'917.3
2019-May-12 19:29N 54°54' W 005°36'715.1
2019-May-12 19:00N 54°51' W 005°48'0 0.3
2019-May-12 18:30N 54°51' W 005°48'0 0.0
2019-May-12 18:00N 54°51' W 005°48'0 0.0
2019-May-12 17:30N 54°51' W 005°48'5 9.9
2019-May-12 17:00N 54°54' W 005°41'917.3
2019-May-12 16:30N 54°58' W 005°27'10 3.8
2019-May-12 13:46N 55°01' W 005°10'519.9
2019-May-12 13:30N 54°59' W 005°18'1020.6
2019-May-12 13:00N 54°54' W 005°35'816.9
2019-May-12 12:31N 54°51' W 005°48'0 0.2
2019-May-12 12:00N 54°51' W 005°48'0 0.0
2019-May-12 11:30N 54°51' W 005°48'0 0.0
2019-May-12 10:51N 54°51' W 005°48'0 0.0
2019-May-12 10:18N 54°51' W 005°48'0 0.0
2019-May-12 09:51N 54°51' W 005°48'0 0.0
2019-May-12 09:11N 54°51' W 005°48'0 0.0
2019-May-12 08:26N 54°51' W 005°48'4 8.5
2019-May-12 08:00N 54°53' W 005°43'917.9
2019-May-12 07:30N 54°57' W 005°29'917.3
2019-May-12 07:00N 55°00' W 005°15'1 0.1
2019-May-11 20:04N 54°60' W 005°14'118.4
2019-May-11 20:00N 54°59' W 005°16'1217.9
2019-May-11 19:21N 54°54' W 005°34'915.5
2019-May-11 18:48N 54°51' W 005°48'0 0.5
2019-May-11 18:29N 54°51' W 005°48'0 0.0
2019-May-11 17:59N 54°51' W 005°48'0 0.0
2019-May-11 17:28N 54°51' W 005°48'1513.4
2019-May-11 16:21N 54°58' W 005°25'8 2.4
2019-May-11 12:51N 54°54' W 005°38'615.8
2019-May-11 12:27N 54°51' W 005°48'0 0.3
2019-May-11 11:41N 54°51' W 005°48'0 0.0
2019-May-11 11:29N 54°51' W 005°48'2116.4
2019-May-11 10:12N 55°00' W 005°15'1 0.2
2019-May-11 07:45N 54°60' W 005°14'517.9
2019-May-11 07:29N 54°58' W 005°22'1017.2
2019-May-11 06:56N 54°54' W 005°37'715.2
2019-May-11 06:29N 54°51' W 005°48'0 0.2
2019-May-11 05:50N 54°51' W 005°48'0 0.0
2019-May-11 05:02N 54°51' W 005°48'0 0.1
2019-May-11 04:59N 54°51' W 005°48'610.9
2019-May-11 04:29N 54°54' W 005°40'1517.1
2019-May-11 03:35N 55°00' W 005°16'1 0.3
2019-May-11 00:09N 54°60' W 005°15'817.3
2019-May-10 23:41N 54°56' W 005°28'618.0
2019-May-10 23:20N 54°54' W 005°38'615.7
2019-May-10 22:56N 54°51' W 005°48'0 0.2
2019-May-10 22:19N 54°51' W 005°48'0 0.0
2019-May-10 21:55N 54°51' W 005°48'0 0.0
2019-May-10 21:01N 54°51' W 005°48'813.1
2019-May-10 20:22N 54°55' W 005°35'617.6
2019-May-10 20:00N 54°58' W 005°25'6 2.0
2019-May-10 16:51N 55°00' W 005°15'1417.2
2019-May-10 16:01N 54°54' W 005°37'017.2
2019-May-10 16:00N 54°54' W 005°37'713.5
2019-May-10 15:30N 54°51' W 005°48'0 0.2
2019-May-10 14:56N 54°51' W 005°48'0 0.0
2019-May-10 14:26N 54°51' W 005°48'9 2.1
2019-May-10 10:08N 54°55' W 005°34'317.5
2019-May-10 09:56N 54°53' W 005°40'512.6
2019-May-10 09:30N 54°51' W 005°48'0 0.0
2019-May-10 08:35N 54°51' W 005°48'0 0.3
2019-May-10 08:27N 54°51' W 005°48'23 5.5
2019-May-10 04:19N 55°01' W 005°12'817.6
2019-May-10 03:53N 54°57' W 005°24'617.4
2019-May-10 03:30N 54°55' W 005°35'816.0
2019-May-10 02:59N 54°51' W 005°48'0 0.2
2019-May-10 01:52N 54°51' W 005°48'0 0.0
2019-May-10 01:28N 54°51' W 005°48'0 0.0
2019-May-10 00:55N 54°51' W 005°48'5 9.9
2019-May-10 00:26N 54°54' W 005°41'18 4.4
2019-May-09 20:20N 55°01' W 005°12'1617.5
2019-May-09 19:25N 54°54' W 005°38'715.4
2019-May-09 19:00N 54°51' W 005°48'0 0.1
2019-May-09 17:28N 54°51' W 005°48'15 3.7
2019-May-09 13:23N 54°57' W 005°23'820.4
2019-May-09 13:00N 54°54' W 005°36'714.5
2019-May-09 12:30N 54°51' W 005°48'0 0.0
2019-May-09 12:00N 54°51' W 005°48'0 0.0
2019-May-09 11:30N 54°51' W 005°48'2016.1
2019-May-09 10:14N 55°00' W 005°16'1 0.3
2019-May-09 07:43N 54°60' W 005°15'717.4
2019-May-09 07:18N 54°56' W 005°27'616.7
2019-May-09 06:56N 54°54' W 005°36'715.3
2019-May-09 06:28N 54°51' W 005°48'0 0.2
2019-May-09 05:39N 54°51' W 005°48'0 0.0
2019-May-09 05:15N 54°51' W 005°48'0 0.0
2019-May-09 05:00N 54°51' W 005°48'2016.5
2019-May-09 03:46N 55°00' W 005°16'1 0.2
2019-May-09 00:14N 54°60' W 005°15'718.4
2019-May-08 23:53N 54°57' W 005°26'716.5
2019-May-08 23:28N 54°54' W 005°37'715.1
2019-May-08 23:00N 54°51' W 005°48'0 0.2
2019-May-08 22:07N 54°51' W 005°48'0 0.0
2019-May-08 21:55N 54°51' W 005°48'0 0.0
2019-May-08 21:25N 54°51' W 005°48'0 0.2
2019-May-08 21:00N 54°51' W 005°48'21 5.1
2019-May-08 16:49N 55°00' W 005°15'820.2
2019-May-08 16:24N 54°56' W 005°27'1019.0
2019-May-08 15:54N 54°53' W 005°43'3 6.2
2019-May-08 15:21N 54°51' W 005°48'0 0.2
2019-May-08 14:26N 54°51' W 005°48'21 5.6
2019-May-08 10:44N 54°60' W 005°15'719.3
2019-May-08 10:22N 54°56' W 005°27'617.1
2019-May-08 10:00N 54°54' W 005°36'714.6
2019-May-08 09:31N 54°51' W 005°48'0 0.1
2019-May-08 08:33N 54°51' W 005°48'0 0.0
2019-May-08 08:30N 54°51' W 005°48'23 5.4
2019-May-08 04:17N 55°01' W 005°12'1020.5
2019-May-08 03:48N 54°56' W 005°28'917.7
2019-May-08 03:16N 54°53' W 005°43'312.8
2019-May-08 03:00N 54°51' W 005°48'0 0.2
2019-May-08 02:29N 54°51' W 005°48'0 0.0
2019-May-08 01:59N 54°51' W 005°48'0 0.0
2019-May-08 01:28N 54°51' W 005°48'0 0.0
2019-May-08 00:57N 54°51' W 005°48'21 4.3
2019-May-07 20:11N 54°60' W 005°16'2018.2
2019-May-07 19:03N 54°51' W 005°48'0 1.1
2019-May-07 19:01N 54°51' W 005°48'0 0.1
2019-May-07 18:27N 54°51' W 005°48'0 0.0
2019-May-07 17:30N 54°51' W 005°48'24 6.6
2019-May-07 13:51N 55°01' W 005°10'2019.9
2019-May-07 12:50N 54°53' W 005°43'310.9
2019-May-07 12:31N 54°51' W 005°48'0 0.0
2019-May-07 11:41N 54°51' W 005°48'0 0.1
2019-May-07 11:29N 54°51' W 005°48'  

Dump ship's entire track history